Time;durP1;ratioP1;P1;durP2;ratioP2;P2;SDS_P1;SDS_P2;PMS_P1;PMS_P2;Temp;Humidity;BMP_temperature;BMP_pressure;BME280_temperature;BME280_humidity;BME280_pressure;Samples;Min_cycle;Max_cycle;Signal;HPM_P1;HPM_P2
2023/04/17 00:01:34;;;;;;;41.95;24.40;;;;;;;8.42;100.00;102401.09;5030686;28;20030;-70
2023/04/17 00:04:00;;;;;;;36.45;22.45;;;;;;;8.40;100.00;102399.38;5033842;28;20119;-70
2023/04/17 00:06:26;;;;;;;40.05;22.55;;;;;;;8.39;100.00;102392.25;5014050;28;20054;-69
2023/04/17 00:08:51;;;;;;;37.53;23.65;;;;;;;8.39;100.00;102392.25;5016326;28;20125;-70
2023/04/17 00:11:17;;;;;;;39.28;24.08;;;;;;;8.39;100.00;102399.44;5038950;28;20072;-70
2023/04/17 00:13:42;;;;;;;42.10;22.17;;;;;;;8.37;100.00;102399.47;5039836;28;20009;-70
2023/04/17 00:16:12;;;;;;;39.33;24.35;;;;;;;8.37;100.00;102395.94;5030383;28;20041;-70
2023/04/17 00:18:37;;;;;;;35.25;22.17;;;;;;;8.35;100.00;102393.31;5021137;28;20029;-70
2023/04/17 00:21:03;;;;;;;39.88;23.35;;;;;;;8.36;100.00;102391.50;5028177;28;20112;-70
2023/04/17 00:23:28;;;;;;;37.35;23.63;;;;;;;8.35;100.00;102389.78;5045736;28;20014;-70
2023/04/17 00:25:53;;;;;;;40.53;23.13;;;;;;;8.36;100.00;102397.75;5044926;28;20044;-70
2023/04/17 00:28:19;;;;;;;43.10;23.17;;;;;;;8.36;100.00;102397.75;5042896;28;20056;-70
2023/04/17 00:30:45;;;;;;;40.30;24.05;;;;;;;8.39;100.00;102386.03;5043539;28;20056;-70
2023/04/17 00:33:10;;;;;;;38.72;23.52;;;;;;;8.39;100.00;102386.03;5024779;28;20115;-70
2023/04/17 00:35:36;;;;;;;36.38;22.23;;;;;;;8.40;100.00;102377.94;5040754;28;20045;-70
2023/04/17 00:38:01;;;;;;;38.50;23.60;;;;;;;8.42;100.00;102377.88;5039143;28;20032;-70
2023/04/17 00:40:26;;;;;;;38.95;23.65;;;;;;;8.42;100.00;102372.53;5029636;28;20037;-70
2023/04/17 00:42:55;;;;;;;37.40;22.85;;;;;;;8.43;100.00;102370.72;5020391;28;20038;-70
2023/04/17 00:45:20;;;;;;;34.28;21.90;;;;;;;8.43;100.00;102371.56;5042294;28;20026;-70
2023/04/17 00:47:47;;;;;;;37.13;22.40;;;;;;;8.44;100.00;102377.81;5047917;28;20060;-69
2023/04/17 00:50:13;;;;;;;40.35;23.92;;;;;;;8.45;100.00;102368.84;5044637;28;20033;-70
2023/04/17 00:52:38;;;;;;;40.10;23.52;;;;;;;8.43;100.00;102366.22;5022440;28;20080;-70
2023/04/17 00:55:04;;;;;;;44.33;24.38;;;;;;;8.44;100.00;102370.69;5046859;28;20113;-70
2023/04/17 00:57:29;;;;;;;35.55;23.20;;;;;;;8.43;100.00;102370.72;5032562;28;20057;-70
2023/04/17 00:59:56;;;;;;;39.88;24.38;;;;;;;8.42;100.00;102368.94;5049887;28;20017;-70
2023/04/17 01:02:22;;;;;;;35.67;21.60;;;;;;;8.40;100.00;102371.69;4990749;28;20022;-68
2023/04/17 01:04:47;;;;;;;34.30;21.40;;;;;;;8.40;100.00;102371.69;4999461;28;20712;-67
2023/04/17 01:07:13;;;;;;;34.75;21.58;;;;;;;8.39;100.00;102365.47;5024352;28;20148;-68
2023/04/17 01:09:38;;;;;;;35.70;20.58;;;;;;;8.40;100.00;102369.00;5017796;28;20511;-68
2023/04/17 01:12:23;;;;;;;33.88;20.80;;;;;;;8.39;100.00;102367.28;5005986;28;20030;-68
2023/04/17 01:14:53;;;;;;;33.75;19.60;;;;;;;8.37;100.00;102380.72;5022628;28;20022;-68
2023/04/17 01:17:19;;;;;;;33.17;19.90;;;;;;;8.36;100.00;102379.00;5024176;28;20041;-67
2023/04/17 01:19:45;;;;;;;36.80;21.63;;;;;;;8.37;100.00;102379.84;5015399;28;20033;-68
2023/04/17 01:22:10;;;;;;;34.03;20.08;;;;;;;8.36;100.00;102373.63;5006904;28;20418;-68
2023/04/17 01:24:36;;;;;;;34.35;20.05;;;;;;;8.35;100.00;102377.25;5018404;28;20025;-70
2023/04/17 01:27:02;;;;;;;34.40;20.75;;;;;;;8.33;100.00;102376.44;5011973;28;20103;-68
2023/04/17 01:29:28;;;;;;;36.22;20.08;;;;;;;8.33;100.00;102373.75;5012507;28;20021;-68
2023/04/17 01:31:53;;;;;;;35.20;20.63;;;;;;;8.32;100.00;102374.69;5013012;28;20492;-68
2023/04/17 01:34:19;;;;;;;34.72;20.02;;;;;;;8.30;100.00;102376.56;5013134;28;20453;-68
2023/04/17 01:36:44;;;;;;;37.17;22.90;;;;;;;8.30;100.00;102387.28;5000024;28;20022;-68
2023/04/17 01:39:09;;;;;;;38.97;21.17;;;;;;;8.29;100.00;102374.81;5003031;28;20101;-68
2023/04/17 01:41:35;;;;;;;35.60;20.75;;;;;;;8.28;100.00;102378.41;5016366;28;20331;-68
2023/04/17 01:44:00;;;;;;;33.58;20.80;;;;;;;8.26;100.00;102384.75;4995848;28;20433;-67
2023/04/17 01:46:26;;;;;;;35.28;20.25;;;;;;;8.25;100.00;102383.88;5019891;28;20030;-67
2023/04/17 01:48:51;;;;;;;35.67;22.23;;;;;;;8.23;100.00;102380.41;5001105;28;20029;-68
2023/04/17 01:51:16;;;;;;;34.47;20.08;;;;;;;8.22;100.00;102374.16;5019831;28;20120;-68
2023/04/17 01:53:41;;;;;;;36.67;20.85;;;;;;;8.19;100.00;102376.97;4998951;28;20029;-67
2023/04/17 01:56:07;;;;;;;35.85;20.25;;;;;;;8.19;100.00;102374.28;5005455;28;20065;-68
2023/04/17 01:58:32;;;;;;;35.13;20.33;;;;;;;8.21;100.00;102382.25;4994526;28;20075;-68
2023/04/17 02:00:59;;;;;;;35.45;20.00;;;;;;;8.25;100.00;102383.03;4997376;28;20220;-69
2023/04/17 02:03:24;;;;;;;35.58;19.88;;;;;;;8.23;100.00;102381.28;4987874;28;20022;-67
2023/04/17 02:05:49;;;;;;;33.65;19.80;;;;;;;8.21;100.00;102388.50;5005140;28;20079;-68
2023/04/17 02:08:15;;;;;;;33.17;18.92;;;;;;;8.20;100.00;102388.56;4994390;28;20026;-68
2023/04/17 02:10:41;;;;;;;33.63;20.25;;;;;;;8.23;100.00;102377.72;5015662;28;20061;-69
2023/04/17 02:13:07;;;;;;;33.50;21.10;;;;;;;8.23;100.00;102385.78;5012651;28;20117;-68
2023/04/17 02:15:33;;;;;;;31.77;19.58;;;;;;;8.22;100.00;102384.00;5018480;28;20037;-67
2023/04/17 02:17:59;;;;;;;32.15;19.45;;;;;;;8.20;100.00;102378.72;5007489;28;20056;-68
2023/04/17 02:20:24;;;;;;;32.15;19.90;;;;;;;8.19;100.00;102390.34;5015467;28;20092;-68
2023/04/17 02:22:50;;;;;;;34.72;19.45;;;;;;;8.17;100.00;102383.31;5000220;28;20103;-68
2023/04/17 02:25:15;;;;;;;32.53;20.65;;;;;;;8.16;100.00;102385.13;5003993;28;20056;-68
2023/04/17 02:27:40;;;;;;;36.65;20.55;;;;;;;8.15;100.00;102378.00;5015897;28;20048;-68
2023/04/17 02:30:06;;;;;;;33.17;19.73;;;;;;;8.18;100.00;102390.41;5006402;28;20116;-67
2023/04/17 02:32:32;;;;;;;35.45;18.65;;;;;;;8.18;100.00;102379.69;5001070;28;20369;-67
2023/04/17 02:34:57;;;;;;;33.08;19.63;;;;;;;8.15;100.00;102377.16;5021658;28;20095;-68
2023/04/17 02:37:22;;;;;;;32.50;19.88;;;;;;;8.17;100.00;102375.25;5015191;28;20025;-68
2023/04/17 02:39:48;;;;;;;34.20;20.75;;;;;;;8.14;100.00;102373.59;5010008;28;20137;-68
2023/04/17 02:42:13;;;;;;;33.47;20.40;;;;;;;8.14;100.00;102375.38;5010432;28;20515;-68
2023/04/17 02:44:39;;;;;;;35.03;21.17;;;;;;;8.12;100.00;102380.81;4999323;28;20121;-68
2023/04/17 02:47:04;;;;;;;33.40;20.40;;;;;;;8.13;100.00;102385.25;5016816;28;20042;-67
2023/04/17 02:49:30;;;;;;;35.30;20.95;;;;;;;8.12;100.00;102383.47;5008220;28;20119;-68
2023/04/17 02:51:55;;;;;;;37.60;20.83;;;;;;;8.08;100.00;102381.84;5004856;28;20050;-68
2023/04/17 02:54:20;;;;;;;38.15;20.23;;;;;;;8.08;100.00;102387.19;5009868;28;20034;-68
2023/04/17 02:56:46;;;;;;;39.83;23.27;;;;;;;8.07;100.00;102387.25;5006918;28;20104;-68
2023/04/17 02:59:12;;;;;;;37.35;20.80;;;;;;;8.05;100.00;102388.22;5007470;28;20407;-68
2023/04/17 03:01:39;;;;;;;38.92;20.88;;;;;;;8.06;100.00;102389.06;5012747;28;20036;-68
2023/04/17 03:04:05;;;;;;;36.15;20.98;;;;;;;8.04;100.00;102389.13;4999317;28;20120;-68
2023/04/17 03:06:30;;;;;;;36.95;20.90;;;;;;;8.06;100.00;102383.72;5022330;28;20118;-68
2023/04/17 03:08:55;;;;;;;33.50;20.17;;;;;;;8.07;100.00;102389.94;4996410;28;20060;-67
2023/04/17 03:11:21;;;;;;;36.15;21.88;;;;;;;8.10;100.00;102387.19;4998246;28;20115;-68
2023/04/17 03:13:46;;;;;;;37.38;23.02;;;;;;;8.12;100.00;102393.34;5006768;28;20021;-69
2023/04/17 03:16:11;;;;;;;39.15;21.58;;;;;;;8.10;100.00;102393.41;4990582;28;20042;-68
2023/04/17 03:18:40;;;;;;;43.83;23.55;;;;;;;8.08;100.00;102387.19;5018988;28;20407;-67
2023/04/17 03:21:05;;;;;;;38.40;22.67;;;;;;;8.05;100.00;102393.56;4997742;28;20044;-68
2023/04/17 03:23:31;;;;;;;39.17;22.33;;;;;;;8.03;100.00;102392.75;5007242;28;20022;-68
2023/04/17 03:25:59;;;;;;;35.92;21.95;;;;;;;8.00;100.00;102394.69;5014375;28;20022;-67
2023/04/17 03:28:24;;;;;;;37.95;21.65;;;;;;;7.98;100.00;102396.50;5005202;28;20022;-67
2023/04/17 03:30:50;;;;;;;37.92;22.75;;;;;;;7.95;100.00;102392.19;5017964;28;20080;-68
2023/04/17 03:33:16;;;;;;;38.30;22.23;;;;;;;7.94;100.00;102390.41;5023462;28;20053;-68
2023/04/17 03:35:42;;;;;;;38.53;22.50;;;;;;;7.93;100.00;102391.34;5016488;28;20044;-68
2023/04/17 03:38:08;;;;;;;36.78;23.20;;;;;;;7.93;100.00;102394.03;5010284;28;20026;-67
2023/04/17 03:40:34;;;;;;;39.80;21.85;;;;;;;7.93;100.00;102388.66;5013263;28;20420;-70
2023/04/17 03:43:00;;;;;;;36.30;23.88;;;;;;;7.95;100.00;102383.25;5006901;28;20068;-68
2023/04/17 03:45:25;;;;;;;40.22;22.95;;;;;;;7.96;100.00;102387.69;5009395;28;20029;-68
2023/04/17 03:47:50;;;;;;;41.30;25.00;;;;;;;7.96;100.00;102396.56;5008828;28;20057;-68
2023/04/17 03:50:16;;;;;;;35.75;21.27;;;;;;;7.97;100.00;102390.31;5024513;28;20033;-68
2023/04/17 03:52:42;;;;;;;37.53;22.10;;;;;;;7.96;100.00;102391.22;5007172;28;20679;-68
2023/04/17 03:55:08;;;;;;;39.00;23.15;;;;;;;7.94;100.00;102385.06;5001255;28;20074;-68
2023/04/17 03:57:34;;;;;;;40.20;23.63;;;;;;;7.93;100.00;102385.13;5016715;28;20202;-68
2023/04/17 03:59:59;;;;;;;38.17;23.88;;;;;;;7.97;100.00;102373.38;5027781;28;20021;-68
2023/04/17 04:02:24;;;;;;;35.25;22.75;;;;;;;7.96;100.00;102391.22;5021621;28;20041;-68
2023/04/17 04:04:50;;;;;;;36.70;23.55;;;;;;;7.95;100.00;102400.22;5012016;28;20109;-68
2023/04/17 04:07:15;;;;;;;37.17;22.27;;;;;;;7.93;100.00;102396.69;5006497;28;20053;-68
2023/04/17 04:09:41;;;;;;;38.45;21.95;;;;;;;7.91;100.00;102395.03;5013142;28;20030;-68
2023/04/17 04:12:07;;;;;;;35.75;21.88;;;;;;;7.89;100.00;102392.38;5020468;28;20452;-67
2023/04/17 04:14:36;;;;;;;36.05;21.17;;;;;;;7.87;100.00;102388.91;5025453;28;20037;-68
2023/04/17 04:17:01;;;;;;;38.20;24.38;;;;;;;7.83;100.00;102387.25;5011603;28;20064;-67
2023/04/17 04:19:27;;;;;;;40.15;22.42;;;;;;;7.85;100.00;102386.28;5026861;28;20064;-67
2023/04/17 04:21:52;;;;;;;40.22;23.73;;;;;;;7.85;100.00;102385.41;5000972;28;20026;-67
2023/04/17 04:24:19;;;;;;;37.92;21.40;;;;;;;7.83;100.00;102384.59;5024942;28;20033;-68
2023/04/17 04:26:48;;;;;;;40.35;23.00;;;;;;;7.82;100.00;102394.44;5022408;28;20424;-67
2023/04/17 04:29:14;;;;;;;39.97;22.83;;;;;;;7.82;100.00;102390.88;5014066;28;20060;-68
2023/04/17 04:31:39;;;;;;;36.70;22.45;;;;;;;7.80;100.00;102384.69;5009385;28;20057;-68
2023/04/17 04:34:06;;;;;;;37.40;22.52;;;;;;;7.81;100.00;102397.16;4998719;28;20014;-67
2023/04/17 04:36:34;;;;;;;38.50;21.67;;;;;;;7.79;100.00;102391.88;5023948;28;20037;-68
2023/04/17 04:39:00;;;;;;;36.70;22.88;;;;;;;7.77;100.00;102391.03;5021851;28;20105;-68
2023/04/17 04:41:26;;;;;;;36.53;21.58;;;;;;;7.79;100.00;102401.69;5006889;28;20025;-68
2023/04/17 04:43:53;;;;;;;37.78;23.10;;;;;;;7.82;100.00;102404.28;5019152;28;20041;-68
2023/04/17 04:46:18;;;;;;;36.90;23.25;;;;;;;7.79;100.00;102402.56;5025260;28;20060;-68
2023/04/17 04:48:43;;;;;;;39.13;24.48;;;;;;;7.78;100.00;102403.50;5022135;28;20061;-68
2023/04/17 04:51:09;;;;;;;39.20;25.50;;;;;;;7.76;100.00;102407.16;5009308;28;20032;-68
2023/04/17 04:53:34;;;;;;;38.33;23.08;;;;;;;7.73;100.00;102409.94;5015939;28;20100;-67
2023/04/17 04:56:00;;;;;;;41.17;22.15;;;;;;;7.70;100.00;102409.13;5002409;28;20040;-68
2023/04/17 04:58:28;;;;;;;40.08;22.70;;;;;;;7.68;100.00;102405.63;5011981;28;20033;-68
2023/04/17 05:00:53;;;;;;;41.22;23.27;;;;;;;7.69;100.00;102407.38;4986576;28;20041;-68
2023/04/17 05:03:18;;;;;;;36.42;22.58;;;;;;;7.67;100.00;102403.91;5001387;28;20034;-68
2023/04/17 05:05:44;;;;;;;39.72;23.35;;;;;;;7.67;100.00;102406.56;4994274;28;20084;-68
2023/04/17 05:08:09;;;;;;;39.78;22.98;;;;;;;7.66;100.00;102412.84;5009290;28;20034;-68
2023/04/17 05:10:34;;;;;;;37.17;23.80;;;;;;;7.66;100.00;102420.88;4998474;28;20036;-68
2023/04/17 05:13:00;;;;;;;36.95;22.77;;;;;;;7.66;100.00;102417.34;5029963;28;20025;-68
2023/04/17 05:15:25;;;;;;;38.45;22.38;;;;;;;7.67;100.00;102421.72;5015873;28;20080;-68
2023/04/17 05:17:51;;;;;;;38.67;24.40;;;;;;;7.64;100.00;102422.75;5010684;28;20452;-67
2023/04/17 05:20:16;;;;;;;39.33;24.58;;;;;;;7.65;100.00;102427.16;5010863;28;20025;-67
2023/04/17 05:22:41;;;;;;;40.05;24.23;;;;;;;7.63;100.00;102431.69;5008106;28;20049;-68
2023/04/17 05:25:07;;;;;;;43.22;23.83;;;;;;;7.65;100.00;102428.97;5008720;28;20037;-68
2023/04/17 05:27:32;;;;;;;43.70;24.83;;;;;;;7.66;100.00;102433.38;4989608;28;20030;-68
2023/04/17 05:29:58;;;;;;;38.53;24.85;;;;;;;7.66;100.00;102434.25;5005600;28;20034;-68
2023/04/17 05:32:23;;;;;;;41.22;25.00;;;;;;;7.66;100.00;102434.25;5008839;28;20404;-68
2023/04/17 05:34:48;;;;;;;39.05;22.88;;;;;;;7.68;100.00;102435.06;5010987;28;20143;-68
2023/04/17 05:37:14;;;;;;;39.70;24.08;;;;;;;7.70;100.00;102426.97;5005158;28;20054;-68
2023/04/17 05:39:39;;;;;;;40.25;25.00;;;;;;;7.73;100.00;102434.03;5008275;28;20433;-68
2023/04/17 05:42:04;;;;;;;39.20;24.15;;;;;;;7.75;100.00;102437.53;4992002;28;20495;-68
2023/04/17 05:44:31;;;;;;;41.85;25.50;;;;;;;7.74;100.00;102431.28;4991984;28;20132;-68
2023/04/17 05:46:58;;;;;;;46.72;25.85;;;;;;;7.75;100.00;102441.09;5020121;28;20377;-68
2023/04/17 05:49:24;;;;;;;47.28;25.67;;;;;;;7.74;100.00;102442.00;5023255;28;20032;-67
2023/04/17 05:51:50;;;;;;;41.30;24.95;;;;;;;7.74;100.00;102441.13;5005654;28;20056;-68
2023/04/17 05:54:15;;;;;;;39.00;25.42;;;;;;;7.74;100.00;102441.13;5021141;28;20057;-68
2023/04/17 05:56:40;;;;;;;36.90;25.25;;;;;;;7.72;100.00;102438.50;5020864;28;20559;-68
2023/04/17 05:59:06;;;;;;;38.38;24.92;;;;;;;7.72;100.00;102442.97;5014192;28;20022;-68
2023/04/17 06:01:31;;;;;;;42.92;24.77;;;;;;;7.71;100.00;102442.13;5000216;28;20022;-68
2023/04/17 06:03:56;;;;;;;38.30;25.27;;;;;;;7.70;100.00;102441.25;5003493;28;20026;-68
2023/04/17 06:06:21;;;;;;;41.88;26.30;;;;;;;7.73;100.00;102450.09;5013361;28;20038;-68
2023/04/17 06:08:47;;;;;;;40.92;26.45;;;;;;;7.72;100.00;102446.53;5012213;28;20029;-68
2023/04/17 06:11:14;;;;;;;41.58;27.20;;;;;;;7.71;100.00;102447.47;5018296;28;20464;-67
2023/04/17 06:13:39;;;;;;;45.65;27.98;;;;;;;7.73;100.00;102452.75;5017946;28;20354;-68
2023/04/17 06:16:05;;;;;;;40.63;26.00;;;;;;;7.69;100.00;102457.38;5023265;28;20031;-68
2023/04/17 06:18:30;;;;;;;41.78;27.10;;;;;;;7.70;100.00;102456.41;5016095;28;20025;-68
2023/04/17 06:20:56;;;;;;;42.88;27.27;;;;;;;7.68;100.00;102461.81;5004566;28;20033;-68
2023/04/17 06:23:21;;;;;;;39.40;25.52;;;;;;;7.68;100.00;102459.13;4992856;28;20133;-68
2023/04/17 06:25:46;;;;;;;39.85;25.55;;;;;;;7.69;100.00;102460.91;5022211;28;20079;-68
2023/04/17 06:28:12;;;;;;;45.45;27.15;;;;;;;7.70;100.00;102459.97;5007668;28;20029;-68
2023/04/17 06:30:37;;;;;;;41.22;25.13;;;;;;;7.71;100.00;102468.88;5020352;28;20425;-68
2023/04/17 06:33:02;;;;;;;41.67;26.50;;;;;;;7.73;100.00;102474.16;5014709;28;20465;-68
2023/04/17 06:35:28;;;;;;;41.58;26.48;;;;;;;7.73;100.00;102475.06;5018237;28;20041;-68
2023/04/17 06:37:53;;;;;;;40.38;24.90;;;;;;;7.73;100.00;102472.38;5025117;28;20029;-68
2023/04/17 06:40:19;;;;;;;39.88;25.85;;;;;;;7.73;100.00;102477.75;5010219;28;20033;-67
2023/04/17 06:42:44;;;;;;;40.33;26.35;;;;;;;7.72;100.00;102470.63;5007215;28;20523;-68
2023/04/17 06:45:10;;;;;;;46.80;30.02;;;;;;;7.74;100.00;102486.63;4990492;28;20021;-69
2023/04/17 06:47:35;;;;;;;42.17;25.20;;;;;;;7.76;100.00;102474.06;4993442;28;20443;-68
2023/04/17 06:50:00;;;;;;;40.63;25.48;;;;;;;7.77;100.00;102473.13;5010766;28;20035;-68
2023/04/17 06:52:26;;;;;;;47.80;28.45;;;;;;;7.80;100.00;102478.38;5011512;28;20692;-68
2023/04/17 06:54:55;;;;;;;42.47;27.27;;;;;;;7.81;100.00;102480.13;5014892;28;20030;-68
2023/04/17 06:57:21;;;;;;;45.35;26.33;;;;;;;7.83;100.00;102491.66;5011881;28;20041;-68
2023/04/17 06:59:47;;;;;;;43.40;28.25;;;;;;;7.82;100.00;102487.25;5020061;28;20033;-67
2023/04/17 07:02:12;;;;;;;45.95;26.77;;;;;;;7.81;100.00;102485.50;5003765;28;20041;-68
2023/04/17 07:04:37;;;;;;;42.85;25.92;;;;;;;7.82;100.00;102495.28;5019313;28;20086;-68
2023/04/17 07:07:03;;;;;;;49.05;29.20;;;;;;;7.84;100.00;102501.44;5012072;28;20037;-68
2023/04/17 07:09:28;;;;;;;48.00;27.75;;;;;;;7.88;100.00;102492.38;5007760;28;20030;-67
2023/04/17 07:11:53;;;;;;;43.70;27.65;;;;;;;7.88;100.00;102497.72;5018872;28;20040;-68
2023/04/17 07:14:19;;;;;;;42.53;26.25;;;;;;;7.89;100.00;102504.81;5016354;28;20032;-68
2023/04/17 07:16:44;;;;;;;45.15;27.00;;;;;;;7.87;100.00;102510.22;4994490;28;20026;-68
2023/04/17 07:19:09;;;;;;;44.38;27.20;;;;;;;7.88;100.00;102513.78;5015547;28;20025;-68
2023/04/17 07:21:35;;;;;;;45.05;26.58;;;;;;;7.88;100.00;102509.31;5016347;28;20037;-68
2023/04/17 07:24:01;;;;;;;43.60;27.60;;;;;;;7.89;100.00;102515.53;4998574;28;20041;-68
2023/04/17 07:26:26;;;;;;;41.55;26.17;;;;;;;7.91;100.00;102513.69;5022278;28;20067;-68
2023/04/17 07:28:51;;;;;;;44.30;27.50;;;;;;;7.94;100.00;102520.75;5026500;28;20069;-68
2023/04/17 07:31:17;;;;;;;41.85;26.83;;;;;;;7.93;100.00;102516.31;5012308;28;20034;-68
2023/04/17 07:33:42;;;;;;;43.00;27.50;;;;;;;7.96;100.00;102517.06;5012157;28;20543;-69
2023/04/17 07:36:10;;;;;;;42.25;26.00;;;;;;;7.99;100.00;102516.94;4994254;28;20328;-68
2023/04/17 07:38:35;;;;;;;45.78;28.42;;;;;;;8.03;100.00;102523.09;5013724;28;20018;-70
2023/04/17 07:41:01;;;;;;;40.90;25.58;;;;;;;8.04;100.00;102525.69;4992525;28;20022;-68
2023/04/17 07:43:27;;;;;;;42.47;26.60;;;;;;;8.06;100.00;102517.59;5010854;28;20038;-68
2023/04/17 07:45:53;;;;;;;44.60;27.27;;;;;;;8.08;100.00;102526.44;4994221;28;20029;-70
2023/04/17 07:48:21;;;;;;;48.95;28.02;;;;;;;8.12;100.00;102514.69;4995972;28;20038;-68
2023/04/17 07:50:46;;;;;;;43.88;28.08;;;;;;;8.14;100.00;102515.53;5014363;28;20051;-68
2023/04/17 07:53:11;;;;;;;41.58;27.48;;;;;;;8.19;100.00;102520.72;5016388;28;20053;-68
2023/04/17 07:55:37;;;;;;;44.58;27.88;;;;;;;8.23;100.00;102520.56;5020006;28;20055;-68
2023/04/17 07:58:02;;;;;;;40.95;25.40;;;;;;;8.28;100.00;102528.41;5005361;28;20029;-67
2023/04/17 08:00:29;;;;;;;44.28;27.42;;;;;;;8.31;100.00;102516.72;5022732;28;20113;-69
2023/04/17 08:02:54;;;;;;;43.85;28.27;;;;;;;8.34;100.00;102527.31;5017323;28;20108;-68
2023/04/17 08:05:20;;;;;;;46.28;28.20;;;;;;;8.34;100.00;102536.22;5025374;28;20457;-68
2023/04/17 08:07:45;;;;;;;44.67;28.95;;;;;;;8.36;100.00;102536.16;5014252;28;20107;-68
2023/04/17 08:10:11;;;;;;;45.92;29.25;;;;;;;8.40;100.00;102527.97;5020361;28;20039;-67
2023/04/17 08:12:37;;;;;;;42.65;26.52;;;;;;;8.44;100.00;102523.41;5014986;28;20489;-69
2023/04/17 08:15:03;;;;;;;41.55;27.77;;;;;;;8.47;100.00;102528.63;5016807;28;20112;-70
2023/04/17 08:17:28;;;;;;;42.35;27.73;;;;;;;8.56;100.00;102522.06;4995889;28;20036;-68
2023/04/17 08:19:58;;;;;;;40.17;26.90;;;;;;;8.66;100.00;102531.50;4997781;28;20049;-68
2023/04/17 08:22:24;;;;;;;44.22;29.58;;;;;;;8.72;100.00;102528.56;4992014;28;20026;-67
2023/04/17 08:24:56;;;;;;;40.88;26.05;;;;;;;8.76;100.00;102532.03;5017819;28;20021;-68
2023/04/17 08:27:21;;;;;;;39.72;24.35;;;;;;;8.78;100.00;102534.66;5010421;28;20040;-68
2023/04/17 08:29:46;;;;;;;43.63;26.50;;;;;;;8.80;100.00;102540.81;5021027;28;20034;-68
2023/04/17 08:32:12;;;;;;;42.85;25.20;;;;;;;8.84;100.00;102537.94;5005939;28;20033;-68
2023/04/17 08:34:37;;;;;;;40.45;25.13;;;;;;;8.90;100.00;102542.19;5001990;28;20478;-68
2023/04/17 08:37:03;;;;;;;37.58;24.77;;;;;;;8.98;100.00;102536.56;5022420;28;20017;-68
2023/04/17 08:39:29;;;;;;;37.90;24.13;;;;;;;9.00;100.00;102538.22;5007665;28;20034;-68
2023/04/17 08:42:01;;;;;;;37.53;23.85;;;;;;;9.03;99.75;102538.09;5018597;28;20030;-67
2023/04/17 08:44:27;;;;;;;37.50;24.80;;;;;;;9.05;98.96;102541.59;5014715;28;20029;-69
2023/04/17 08:46:56;;;;;;;38.65;23.88;;;;;;;9.08;98.90;102546.84;5000210;28;20030;-68
2023/04/17 08:49:23;;;;;;;39.63;24.30;;;;;;;9.10;98.84;102542.28;5021497;28;20032;-68
2023/04/17 08:51:48;;;;;;;39.33;26.73;;;;;;;9.14;99.14;102539.50;5017248;28;20487;-68
2023/04/17 08:54:14;;;;;;;42.10;24.15;;;;;;;9.19;98.97;102537.50;4997774;28;20124;-68
2023/04/17 08:56:39;;;;;;;39.67;24.63;;;;;;;9.27;99.30;102540.75;5026258;28;20053;-68
2023/04/17 08:59:05;;;;;;;39.42;24.60;;;;;;;9.30;97.60;102542.41;4999350;28;20546;-70
2023/04/17 09:01:32;;;;;;;38.97;26.58;;;;;;;9.30;97.47;102540.63;5015576;28;20088;-68
2023/04/17 09:03:57;;;;;;;37.92;24.58;;;;;;;9.32;98.83;102544.09;5003788;28;20034;-68
2023/04/17 09:06:23;;;;;;;40.08;24.40;;;;;;;9.35;97.97;102548.47;5010008;28;20100;-68
2023/04/17 09:08:55;;;;;;;39.70;26.40;;;;;;;9.42;98.75;102550.84;5014348;28;20041;-68
2023/04/17 09:11:23;;;;;;;40.05;24.98;;;;;;;9.49;98.78;102542.53;5021107;28;20041;-67
2023/04/17 09:13:49;;;;;;;39.92;26.05;;;;;;;9.50;96.94;102542.47;5019117;28;20026;-67
2023/04/17 09:16:14;;;;;;;41.78;26.67;;;;;;;9.56;98.30;102549.38;5017407;28;20037;-70
2023/04/17 09:18:45;;;;;;;39.63;24.70;;;;;;;9.58;97.51;102544.84;5002683;28;20030;-68
2023/04/17 09:21:11;;;;;;;38.58;26.38;;;;;;;9.60;97.53;102545.66;5024259;28;20111;-67
2023/04/17 09:23:54;;;;;;;42.30;25.95;;;;;;;9.63;97.54;102553.56;5024058;28;20052;-67
2023/04/17 09:26:29;;;;;;;37.92;25.40;;;;;;;9.66;98.00;102555.25;5011947;28;20025;-68
2023/04/17 09:29:03;;;;;;;41.10;26.67;;;;;;;9.72;97.62;102547.84;5019595;28;20037;-67
2023/04/17 09:31:30;;;;;;;38.90;24.83;;;;;;;9.78;96.80;102547.56;5023906;28;20071;-68
2023/04/17 09:33:58;;;;;;;36.83;25.00;;;;;;;9.86;96.27;102546.38;5022863;28;20021;-68
2023/04/17 09:36:26;;;;;;;39.85;25.27;;;;;;;9.89;95.88;102546.22;5010636;28;20036;-68
2023/04/17 09:38:54;;;;;;;37.90;26.10;;;;;;;9.93;95.00;102539.78;5015227;28;20056;-68
2023/04/17 09:41:28;;;;;;;38.58;26.08;;;;;;;10.00;94.68;102546.66;5002011;28;20045;-67
2023/04/17 09:44:00;;;;;;;39.75;26.10;;;;;;;10.03;93.06;102541.13;5021194;28;20469;-68
2023/04/17 09:46:32;;;;;;;37.53;24.35;;;;;;;10.09;93.83;102543.53;5017868;28;20022;-68
2023/04/17 09:49:09;;;;;;;39.95;24.90;;;;;;;10.21;95.49;102539.44;5004548;28;20544;-67
2023/04/17 09:51:35;;;;;;;39.95;26.90;;;;;;;10.28;93.47;102537.34;5012171;28;20419;-68
2023/04/17 09:54:04;;;;;;;42.45;26.50;;;;;;;10.35;93.29;102541.53;4992813;28;20457;-69
2023/04/17 09:56:32;;;;;;;40.45;26.00;;;;;;;10.42;92.59;102543.00;5016794;28;20059;-68
2023/04/17 09:59:00;;;;;;;39.03;25.15;;;;;;;10.49;92.16;102541.78;4995891;28;20033;-68
2023/04/17 10:01:26;;;;;;;41.97;26.75;;;;;;;10.62;92.41;102541.22;5020063;28;20112;-69
2023/04/17 10:03:52;;;;;;;40.85;24.75;;;;;;;10.70;91.56;102543.53;5012294;28;20518;-68
2023/04/17 10:06:18;;;;;;;39.63;25.65;;;;;;;10.76;92.56;102538.78;5017858;28;20164;-67
2023/04/17 10:08:43;;;;;;;39.10;25.90;;;;;;;10.79;91.55;102538.63;5016719;28;20155;-68
2023/04/17 10:11:08;;;;;;;39.17;25.80;;;;;;;10.90;93.68;102537.22;5012172;28;20053;-68
2023/04/17 10:13:37;;;;;;;40.20;26.92;;;;;;;11.02;92.66;102536.63;5026196;28;20043;-68
2023/04/17 10:16:04;;;;;;;39.30;25.20;;;;;;;11.10;89.43;102520.09;5027396;28;20496;-68
2023/04/17 10:18:29;;;;;;;36.55;25.05;;;;;;;11.18;89.38;102531.38;5020474;28;20376;-69
2023/04/17 10:20:55;;;;;;;35.50;23.70;;;;;;;11.24;89.91;102530.22;5004592;28;20034;-69
2023/04/17 10:23:30;;;;;;;40.92;26.70;;;;;;;11.31;89.67;102526.28;5000798;28;20121;-68
2023/04/17 10:26:26;;;;;;;38.17;24.17;;;;;;;11.38;90.88;102530.41;5021684;28;20041;-68
2023/04/17 10:28:53;;;;;;;37.55;25.05;;;;;;;11.43;86.37;102538.25;5023515;28;20528;-68
2023/04/17 10:31:19;;;;;;;38.20;24.40;;;;;;;11.47;84.74;102532.63;5003473;28;20041;-69
2023/04/17 10:33:50;;;;;;;36.85;23.33;;;;;;;11.56;83.90;102531.28;5004356;28;20093;-68
2023/04/17 10:36:47;;;;;;;36.30;23.38;;;;;;;11.69;85.18;102523.47;5021176;28;20041;-69
2023/04/17 10:39:13;;;;;;;36.03;24.45;;;;;;;11.82;83.65;102524.56;4998071;28;20063;-68
2023/04/17 10:42:01;;;;;;;37.45;25.75;;;;;;;12.00;86.64;102524.59;5020611;28;20520;-68
2023/04/17 10:44:26;;;;;;;38.53;25.83;;;;;;;12.02;82.07;102520.88;4995855;28;20029;-69
2023/04/17 10:46:52;;;;;;;38.88;26.02;;;;;;;12.03;82.10;102519.91;4995922;28;20022;-68
2023/04/17 10:49:20;;;;;;;41.50;25.50;;;;;;;12.05;81.72;102522.56;5002405;28;20119;-68
2023/04/17 10:51:45;;;;;;;37.33;24.15;;;;;;;12.12;81.31;102523.94;5015043;28;20030;-69
2023/04/17 10:54:14;;;;;;;35.63;23.90;;;;;;;12.19;81.39;102516.41;4991341;28;20377;-68
2023/04/17 10:56:40;;;;;;;39.22;24.10;;;;;;;12.23;80.98;102521.56;5010464;28;20054;-69
2023/04/17 10:59:09;;;;;;;34.08;22.77;;;;;;;12.24;77.51;102517.91;5021473;28;20109;-69
2023/04/17 11:01:46;;;;;;;36.20;22.77;;;;;;;12.37;79.96;102514.53;5019696;28;20091;-69
2023/04/17 11:04:19;;;;;;;34.33;22.48;;;;;;;12.50;80.31;102504.81;5019891;28;20041;-69
2023/04/17 11:06:45;;;;;;;34.35;22.90;;;;;;;12.57;76.27;102514.31;5010098;28;20124;-69